createdAt,value
2019-02-16T00:00:49.053Z,97.60
2019-02-16T00:03:19.157Z,97.90
2019-02-16T00:05:48.935Z,98.00
2019-02-16T00:08:18.688Z,96.60
2019-02-16T00:10:48.452Z,96.70
2019-02-16T00:13:18.249Z,97.80
2019-02-16T00:15:49.425Z,97.80
2019-02-16T00:18:19.264Z,97.80
2019-02-16T00:20:49.011Z,98.00
2019-02-16T00:23:19.039Z,99.30
2019-02-16T00:25:48.894Z,97.90
2019-02-16T00:28:18.649Z,97.00
2019-02-16T00:30:48.753Z,97.40
2019-02-16T00:33:18.627Z,97.30
2019-02-16T00:35:48.382Z,98.80
2019-02-16T00:38:18.438Z,97.60
2019-02-16T00:40:48.613Z,98.20
2019-02-16T00:43:18.408Z,98.00
2019-02-16T00:45:51.831Z,98.30
2019-02-16T00:48:21.550Z,98.10
2019-02-16T00:50:55.081Z,98.30
2019-02-16T00:53:25.131Z,99.40
2019-02-16T00:55:58.494Z,97.60
2019-02-16T00:58:28.226Z,98.90
2019-02-16T01:01:01.017Z,97.00
2019-02-16T01:03:30.751Z,96.90
2019-02-16T01:06:04.540Z,96.70
2019-02-16T01:08:35.566Z,96.60
2019-02-16T01:11:06.960Z,96.30
2019-02-16T01:13:37.248Z,96.10
2019-02-16T01:16:13.269Z,97.00
2019-02-16T01:18:43.090Z,97.00
2019-02-16T01:21:22.403Z,98.30
2019-02-16T01:23:47.351Z,97.60
2019-02-16T01:26:17.100Z,97.40
2019-02-16T01:28:46.850Z,97.70
2019-02-16T01:31:22.797Z,96.60
2019-02-16T01:33:52.494Z,96.30
2019-02-16T01:36:22.205Z,94.90
2019-02-16T01:38:52.251Z,94.70
2019-02-16T01:41:24.975Z,93.70
2019-02-16T01:43:55.668Z,93.50
2019-02-16T01:46:25.938Z,93.70
2019-02-16T01:48:55.658Z,93.60
2019-02-16T01:51:32.061Z,92.80
2019-02-16T01:54:01.192Z,92.60
2019-02-16T01:56:32.859Z,92.40
2019-02-16T01:59:02.895Z,92.60
2019-02-16T02:01:35.037Z,92.00
2019-02-16T02:04:04.755Z,92.00
2019-02-16T02:06:37.737Z,91.80
2019-02-16T02:09:07.946Z,92.80
2019-02-16T02:11:41.191Z,93.10
2019-02-16T02:14:11.268Z,92.70
2019-02-16T02:16:42.794Z,93.10
2019-02-16T02:19:13.479Z,92.60
2019-02-16T02:21:45.943Z,92.00
2019-02-16T02:24:15.624Z,91.80
2019-02-16T02:26:49.767Z,92.80
2019-02-16T02:29:19.876Z,93.60
2019-02-16T02:31:52.668Z,93.00
2019-02-16T02:34:22.356Z,91.60
2019-02-16T02:36:56.245Z,91.90
2019-02-16T02:39:25.973Z,92.10
2019-02-16T02:41:57.700Z,93.00
2019-02-16T02:44:27.770Z,93.50
2019-02-16T02:47:01.119Z,93.70
2019-02-16T02:49:30.842Z,95.30
2019-02-16T02:52:05.834Z,94.80
2019-02-16T02:54:35.556Z,94.10
2019-02-16T02:57:10.046Z,93.10
2019-02-16T02:59:39.752Z,91.90
2019-02-16T03:02:14.803Z,93.40
2019-02-16T03:04:44.501Z,93.10
2019-02-16T03:07:15.853Z,93.70
2019-02-16T03:09:45.845Z,95.50
2019-02-16T03:12:18.654Z,95.60
2019-02-16T03:14:48.712Z,93.60
2019-02-16T03:17:21.858Z,92.00
2019-02-16T03:19:51.799Z,92.40
2019-02-16T03:22:22.641Z,91.80
2019-02-16T03:24:52.734Z,92.00
2019-02-16T03:28:10.845Z,91.00
2019-02-16T03:31:30.708Z,91.00
2019-02-16T03:34:08.873Z,91.00
2019-02-16T03:37:28.201Z,91.10
2019-02-16T03:39:57.906Z,91.30
2019-02-16T03:42:32.084Z,92.70
2019-02-16T03:45:01.772Z,91.50
2019-02-16T03:47:39.481Z,91.50
2019-02-16T03:50:09.849Z,91.10
2019-02-16T03:52:39.554Z,91.30
2019-02-16T03:55:09.262Z,92.80
2019-02-16T03:57:40.913Z,93.10
2019-02-16T04:00:10.670Z,93.60
2019-02-16T04:02:43.623Z,92.40
2019-02-16T04:05:13.493Z,92.40
2019-02-16T04:07:48.074Z,92.10
2019-02-16T04:10:18.078Z,90.70
2019-02-16T04:12:50.903Z,90.80
2019-02-16T04:15:21.003Z,90.40
2019-02-16T04:17:55.139Z,89.30
2019-02-16T04:20:24.810Z,89.50
2019-02-16T04:22:55.532Z,89.80
2019-02-16T04:25:25.907Z,89.30
2019-02-16T04:27:59.530Z,88.60
2019-02-16T04:30:29.274Z,89.80
2019-02-16T04:33:01.832Z,89.60
2019-02-16T04:35:31.854Z,89.60
2019-02-16T04:38:07.131Z,90.30
2019-02-16T04:40:36.867Z,89.70
2019-02-16T04:43:11.412Z,89.10
2019-02-16T04:45:41.099Z,88.60
2019-02-16T04:48:13.988Z,88.20
2019-02-16T04:51:02.665Z,88.00
2019-02-16T04:53:51.541Z,88.30
2019-02-16T04:56:40.274Z,90.20
2019-02-16T05:05:24.655Z,89.30
2019-02-16T05:07:54.682Z,90.60
2019-02-16T05:18:56.003Z,90.10
2019-02-16T05:24:29.587Z,90.40
2019-02-16T05:27:10.890Z,89.90
2019-02-16T05:29:52.119Z,89.70
2019-02-16T05:32:22.096Z,90.20
2019-02-16T05:35:10.785Z,90.20
2019-02-16T05:37:59.510Z,90.40
2019-02-16T05:40:48.205Z,90.80
2019-02-16T05:43:55.862Z,91.10
2019-02-16T05:46:44.535Z,91.80
2019-02-16T05:52:13.387Z,91.80
2019-02-16T05:54:49.671Z,91.50
2019-02-16T05:57:38.337Z,90.40
2019-02-16T06:06:18.542Z,89.10
2019-02-16T06:09:19.134Z,90.00
2019-02-16T06:11:38.954Z,89.00
2019-02-16T06:14:27.824Z,90.20
2019-02-16T06:17:16.556Z,89.00
2019-02-16T06:23:03.754Z,90.50
2019-02-16T06:25:38.725Z,90.00
2019-02-16T06:28:19.557Z,90.30
2019-02-16T06:31:01.284Z,88.90
2019-02-16T06:33:43.010Z,89.30
2019-02-16T06:36:28.664Z,88.30
2019-02-16T06:39:15.651Z,87.10
2019-02-16T06:41:56.994Z,88.00
2019-02-16T06:44:38.370Z,90.30
2019-02-16T06:47:19.345Z,90.30
2019-02-16T06:50:00.257Z,90.80
2019-02-16T06:52:41.817Z,90.20
2019-02-16T06:55:24.911Z,91.20
2019-02-16T06:58:05.999Z,91.00
2019-02-16T07:00:47.576Z,89.40
2019-02-16T07:03:29.185Z,91.10
2019-02-16T07:06:10.668Z,90.90
2019-02-16T07:08:52.270Z,90.50
2019-02-16T07:11:34.078Z,92.00
2019-02-16T07:14:15.790Z,91.70
2019-02-16T07:17:16.297Z,91.00
2019-02-16T07:19:59.543Z,92.00
2019-02-16T07:22:41.219Z,91.30
2019-02-16T07:27:45.040Z,91.80
2019-02-16T07:30:26.016Z,92.50
2019-02-16T07:33:07.686Z,92.20
2019-02-16T07:35:49.539Z,91.40
2019-02-16T07:38:19.660Z,92.40
2019-02-16T07:40:49.452Z,92.40
2019-02-16T07:43:36.933Z,93.50
2019-02-16T07:46:20.378Z,93.60
2019-02-16T07:49:04.818Z,93.60
2019-02-16T07:51:53.408Z,93.40
2019-02-16T07:54:31.662Z,92.50
2019-02-16T07:57:08.656Z,91.80
2019-02-16T07:59:58.893Z,92.70
2019-02-16T08:02:45.926Z,93.00
2019-02-16T08:05:28.070Z,92.60
2019-02-16T08:08:08.878Z,92.90
2019-02-16T08:11:06.646Z,94.40
2019-02-16T08:13:51.352Z,94.20
2019-02-16T08:16:43.343Z,94.40
2019-02-16T08:19:33.816Z,93.10
2019-02-16T08:22:18.881Z,93.90
2019-02-16T08:25:19.632Z,93.90
2019-02-16T08:28:13.135Z,93.00
2019-02-16T08:30:58.789Z,94.10
2019-02-16T08:33:50.406Z,94.30
2019-02-16T08:36:39.680Z,93.50
2019-02-16T08:39:18.807Z,92.50
2019-02-16T08:41:56.480Z,92.50
2019-02-16T08:44:51.268Z,93.00
2019-02-16T08:47:46.791Z,92.50
2019-02-16T08:50:26.536Z,92.40
2019-02-16T08:53:04.435Z,92.20
2019-02-16T08:56:02.550Z,92.50
2019-02-16T08:58:50.540Z,92.40
2019-02-16T09:01:54.685Z,92.20
2019-02-16T09:04:41.536Z,92.10
2019-02-16T09:07:26.612Z,91.80
2019-02-16T09:10:02.481Z,91.50
2019-02-16T09:12:44.761Z,91.80
2019-02-16T09:15:40.223Z,91.70
2019-02-16T09:18:27.808Z,91.50
2019-02-16T09:21:16.387Z,91.30
2019-02-16T09:24:05.831Z,90.60
2019-02-16T09:26:57.485Z,91.70
2019-02-16T09:29:36.783Z,90.30
2019-02-16T09:32:18.269Z,90.10
2019-02-16T09:34:57.865Z,90.00
2019-02-16T09:37:51.056Z,85.00
2019-02-16T09:40:44.499Z,83.00
2019-02-16T09:43:32.044Z,79.90
2019-02-16T09:46:09.675Z,79.20
2019-02-16T09:49:07.334Z,77.40
2019-02-16T09:52:05.343Z,76.00
2019-02-16T09:54:45.636Z,75.20
2019-02-16T09:57:27.613Z,74.90
2019-02-16T10:00:31.152Z,74.60
2019-02-16T10:03:20.247Z,74.70
2019-02-16T10:06:14.121Z,74.30
2019-02-16T10:09:10.766Z,73.10
2019-02-16T10:11:44.037Z,71.80
2019-02-16T10:14:27.788Z,71.30
2019-02-16T10:17:16.961Z,70.50
2019-02-16T10:20:05.970Z,70.10
2019-02-16T10:23:03.535Z,71.20
2019-02-16T10:26:04.248Z,69.90
2019-02-16T10:28:57.970Z,69.40
2019-02-16T10:31:49.239Z,69.20
2019-02-16T10:34:29.616Z,69.80
2019-02-16T10:37:09.261Z,72.70
2019-02-16T10:42:37.246Z,68.50
2019-02-16T10:45:45.211Z,69.00
2019-02-16T10:51:34.876Z,66.30
2019-02-16T10:54:42.740Z,65.50
2019-02-16T10:57:38.510Z,64.80
2019-02-16T11:00:46.069Z,70.10
2019-02-16T11:03:53.637Z,66.30
2019-02-16T11:06:42.884Z,64.10
2019-02-16T11:09:31.518Z,65.40
2019-02-16T11:12:20.384Z,63.20
2019-02-16T11:15:09.034Z,66.80
2019-02-16T11:17:57.856Z,63.60
2019-02-16T11:24:06.168Z,66.00
2019-02-16T11:26:54.948Z,61.00
2019-02-16T11:30:02.486Z,58.90
2019-02-16T11:33:02.512Z,59.60
2019-02-16T11:35:51.376Z,59.40
2019-02-16T11:39:00.877Z,57.80
2019-02-16T11:42:08.660Z,58.00
2019-02-16T11:45:06.410Z,55.90
2019-02-16T11:47:55.268Z,58.40
2019-02-16T11:51:03.238Z,56.00
2019-02-16T11:53:52.218Z,54.30
2019-02-16T11:56:37.237Z,55.60
2019-02-16T11:59:44.619Z,55.40
2019-02-16T12:02:52.242Z,55.60
2019-02-16T12:05:41.179Z,55.50
2019-02-16T12:08:29.915Z,56.50
2019-02-16T12:11:43.728Z,55.90
2019-02-16T12:14:32.414Z,56.10
2019-02-16T12:20:33.498Z,58.10
2019-02-16T12:23:17.481Z,59.50
2019-02-16T12:29:08.279Z,57.80
2019-02-16T12:31:56.910Z,57.50
2019-02-16T12:34:45.868Z,59.50
2019-02-16T12:37:54.860Z,57.80
2019-02-16T12:40:43.731Z,63.70
2019-02-16T12:46:47.157Z,57.10
2019-02-16T12:53:06.879Z,58.60
2019-02-16T12:55:55.478Z,57.60
2019-02-16T13:01:20.488Z,59.30
2019-02-16T13:04:09.482Z,57.70
2019-02-16T13:07:17.341Z,57.80
2019-02-16T13:10:24.969Z,57.80
2019-02-16T13:13:32.623Z,57.10
2019-02-16T13:16:21.604Z,57.40
2019-02-16T13:19:10.231Z,59.00
2019-02-16T13:22:01.930Z,58.50
2019-02-16T13:24:50.540Z,58.50
2019-02-16T13:27:27.350Z,57.20
2019-02-16T13:30:16.313Z,58.70
2019-02-16T13:33:08.868Z,58.80
2019-02-16T13:39:02.685Z,58.70
2019-02-16T13:41:49.982Z,56.80
2019-02-16T13:44:57.571Z,55.90
2019-02-16T13:47:30.850Z,56.50
2019-02-16T13:50:20.348Z,56.60
2019-02-16T13:53:09.098Z,59.60
2019-02-16T13:55:57.976Z,55.70
2019-02-16T13:59:05.486Z,55.80
2019-02-16T14:01:40.194Z,55.50
2019-02-16T14:04:30.930Z,56.20
2019-02-16T14:13:24.664Z,54.50
2019-02-16T14:16:32.988Z,54.90
2019-02-16T14:19:03.100Z,55.70
2019-02-16T14:21:52.888Z,57.60
2019-02-16T14:24:45.318Z,54.80
2019-02-16T14:27:53.023Z,55.90
2019-02-16T14:30:23.063Z,55.40
2019-02-16T14:33:11.877Z,55.30
2019-02-16T14:36:00.685Z,55.50
2019-02-16T14:39:01.125Z,55.20
2019-02-16T14:41:45.413Z,55.30
2019-02-16T14:44:15.155Z,56.40
2019-02-16T14:46:48.246Z,57.30
2019-02-16T14:49:18.348Z,57.60
2019-02-16T14:52:07.088Z,57.00
2019-02-16T14:54:55.895Z,57.40
2019-02-16T14:57:25.711Z,58.10
2019-02-16T15:03:18.000Z,57.80
2019-02-16T15:05:48.156Z,58.90
2019-02-16T15:08:18.321Z,59.30
2019-02-16T15:10:48.152Z,58.50
2019-02-16T15:13:18.406Z,58.70
2019-02-16T15:15:48.215Z,59.40
2019-02-16T15:18:18.126Z,59.80
2019-02-16T15:20:48.379Z,61.30
2019-02-16T15:23:18.168Z,61.00
2019-02-16T15:25:47.946Z,62.80
2019-02-16T15:28:18.160Z,61.30
2019-02-16T15:30:48.071Z,63.40
2019-02-16T15:33:17.950Z,63.10
2019-02-16T15:35:48.064Z,63.10
2019-02-16T15:38:20.999Z,63.00
2019-02-16T15:40:50.822Z,64.40
2019-02-16T15:43:25.356Z,63.70
2019-02-16T15:45:55.154Z,65.30
2019-02-16T15:48:25.741Z,65.40
2019-02-16T15:50:55.945Z,64.30
2019-02-16T15:53:30.946Z,64.80
2019-02-16T15:56:09.833Z,64.10
2019-02-16T15:58:32.711Z,65.40
2019-02-16T16:01:03.105Z,65.50
2019-02-16T16:03:33.201Z,66.40
2019-02-16T16:06:04.304Z,66.10
2019-02-16T16:08:56.549Z,66.70
2019-02-16T16:11:43.759Z,65.90
2019-02-16T16:14:23.109Z,66.20
2019-02-16T16:16:58.867Z,67.20
2019-02-16T16:20:06.073Z,68.80
2019-02-16T16:23:01.064Z,67.60
2019-02-16T16:25:47.784Z,68.70
2019-02-16T16:28:28.780Z,68.80
2019-02-16T16:31:15.824Z,68.50
2019-02-16T16:34:06.619Z,69.00
2019-02-16T16:36:56.540Z,68.80
2019-02-16T16:39:50.004Z,69.10
2019-02-16T16:42:56.764Z,68.80
2019-02-16T16:46:04.338Z,71.40
2019-02-16T16:51:49.105Z,72.10
2019-02-16T16:54:37.896Z,73.20
2019-02-16T16:58:31.070Z,74.20
2019-02-16T17:00:39.185Z,74.50
2019-02-16T17:03:29.243Z,75.40
2019-02-16T17:06:17.830Z,76.50
2019-02-16T17:12:19.516Z,78.00
2019-02-16T17:15:27.212Z,78.60
2019-02-16T17:18:17.167Z,78.80
2019-02-16T17:21:06.148Z,79.30
2019-02-16T17:27:34.808Z,82.20
2019-02-16T17:30:27.144Z,82.50
2019-02-16T17:33:03.855Z,83.10
2019-02-16T17:36:11.371Z,83.90
2019-02-16T17:42:16.713Z,84.60
2019-02-16T17:48:21.893Z,86.00
2019-02-16T17:51:29.480Z,87.00
2019-02-16T17:54:18.034Z,87.20
2019-02-16T17:57:07.031Z,88.60
2019-02-16T18:00:15.050Z,88.70
2019-02-16T18:03:22.551Z,89.20
2019-02-16T18:06:11.281Z,89.70
2019-02-16T18:09:18.911Z,88.40
2019-02-16T18:12:07.488Z,89.10
2019-02-16T18:15:15.085Z,89.30
2019-02-16T18:18:24.284Z,89.80
2019-02-16T18:21:31.920Z,90.20
2019-02-16T18:24:20.591Z,90.50
2019-02-16T18:27:28.196Z,90.80
2019-02-16T18:30:16.925Z,91.00
2019-02-16T18:33:24.579Z,91.30
2019-02-16T18:36:34.315Z,91.50
2019-02-16T18:39:17.637Z,91.60
2019-02-16T18:45:01.391Z,92.10
2019-02-16T18:48:08.926Z,92.40
2019-02-16T18:51:16.627Z,92.40
2019-02-16T18:57:34.178Z,93.30
2019-02-16T19:00:37.583Z,93.70
2019-02-16T19:03:26.602Z,93.70
2019-02-16T19:06:15.331Z,94.10
2019-02-16T19:09:07.421Z,94.20
2019-02-16T19:11:46.925Z,94.20
2019-02-16T19:14:41.525Z,94.30
2019-02-16T19:17:30.253Z,95.00
2019-02-16T19:20:22.782Z,95.30
2019-02-16T19:23:32.354Z,95.60
2019-02-16T19:26:56.444Z,96.00
2019-02-16T19:30:03.987Z,95.50
2019-02-16T19:32:49.940Z,96.00
2019-02-16T19:35:38.744Z,96.70
2019-02-16T19:38:53.363Z,97.00
2019-02-16T19:41:42.008Z,97.10
2019-02-16T19:44:43.005Z,97.40
2019-02-16T19:47:43.164Z,97.90
2019-02-16T19:50:45.404Z,98.20
2019-02-16T19:53:46.166Z,98.50
2019-02-16T19:57:04.143Z,98.90
2019-02-16T19:59:52.751Z,99.00
2019-02-16T20:02:29.663Z,99.60
2019-02-16T20:05:37.277Z,99.80
2019-02-16T20:08:48.618Z,99.90
2019-02-16T20:11:37.219Z,99.90
2019-02-16T20:14:26.241Z,99.90
2019-02-16T20:17:17.956Z,99.90
2019-02-16T20:20:26.355Z,99.90
2019-02-16T20:23:33.927Z,99.90
2019-02-16T20:26:23.019Z,99.90
2019-02-16T20:29:11.671Z,99.90
2019-02-16T20:32:00.551Z,99.90
2019-02-16T20:34:38.624Z,99.90
2019-02-16T20:37:22.245Z,99.90
2019-02-16T20:39:59.431Z,99.90
2019-02-16T20:42:48.471Z,99.90
2019-02-16T20:45:37.243Z,99.90
2019-02-16T20:48:26.294Z,99.90
2019-02-16T20:51:14.887Z,99.90
2019-02-16T20:54:04.025Z,99.90
2019-02-16T20:56:41.757Z,99.90
2019-02-16T20:59:30.775Z,99.90
2019-02-16T21:05:27.314Z,99.90
2019-02-16T21:08:34.956Z,99.90
2019-02-16T21:11:23.897Z,99.90
2019-02-16T21:14:12.520Z,99.90
2019-02-16T21:17:20.299Z,99.90
2019-02-16T21:20:00.648Z,99.90
2019-02-16T21:23:09.854Z,99.90
2019-02-16T21:25:58.525Z,99.90
2019-02-16T21:28:39.369Z,99.90
2019-02-16T21:31:28.030Z,99.90
2019-02-16T21:34:03.706Z,99.90
2019-02-16T21:37:01.600Z,99.90
2019-02-16T21:39:50.527Z,99.90
2019-02-16T21:42:40.949Z,99.90
2019-02-16T21:45:48.573Z,99.90
2019-02-16T21:48:48.365Z,99.90
2019-02-16T21:54:41.043Z,99.90
2019-02-16T21:57:30.539Z,99.90
2019-02-16T22:00:19.150Z,99.90
2019-02-16T22:03:29.152Z,99.90
2019-02-16T22:06:17.886Z,99.90
2019-02-16T22:09:25.436Z,99.90
2019-02-16T22:12:35.604Z,99.90
2019-02-16T22:15:06.518Z,99.90
2019-02-16T22:17:36.379Z,99.90
2019-02-16T22:20:25.524Z,99.90
2019-02-16T22:22:55.325Z,99.90
2019-02-16T22:25:25.390Z,99.90
2019-02-16T22:27:55.199Z,99.90
2019-02-16T22:30:43.939Z,99.90
2019-02-16T22:33:32.705Z,99.90
2019-02-16T22:36:21.425Z,99.90
2019-02-16T22:39:15.323Z,99.90
2019-02-16T22:41:45.374Z,99.90
2019-02-16T22:44:34.289Z,99.90
2019-02-16T22:47:24.542Z,99.90
2019-02-16T22:52:53.741Z,99.90
2019-02-16T22:55:42.760Z,99.90
2019-02-16T22:58:31.538Z,99.90
2019-02-16T23:04:40.007Z,99.90
2019-02-16T23:07:49.093Z,99.90
2019-02-16T23:10:19.230Z,99.90
2019-02-16T23:12:49.116Z,99.90
2019-02-16T23:15:37.781Z,99.90
2019-02-16T23:18:26.573Z,99.90
2019-02-16T23:20:56.391Z,99.90
2019-02-16T23:23:26.624Z,99.90
2019-02-16T23:25:56.927Z,99.90
2019-02-16T23:28:26.925Z,99.90
2019-02-16T23:31:15.666Z,99.90
2019-02-16T23:34:04.503Z,99.90
2019-02-16T23:39:22.334Z,99.90
2019-02-16T23:41:52.071Z,99.90
2019-02-16T23:44:40.905Z,99.90
2019-02-16T23:47:36.574Z,99.90
2019-02-16T23:50:07.646Z,99.90
2019-02-16T23:52:37.374Z,99.90
2019-02-16T23:55:07.839Z,99.90
2019-02-16T23:57:37.892Z,99.90
